Fjordprinsessen — LJVE — position and weather

sailwx.info

Track history (hours):
 
Tides and Currents Weather Stations Pressure Air Temp Water Temp Dewpoint Dewpoint Depression Visibility Wind Speed Wind Dir Waves Ship Positions

Fjordprinsessen

Last reported at 2018-Apr-20 08:30 UTC. Time now 2018-Apr-20 08:41 UTC.
Position N 66°57' E 013°29'.

Length 30 m; draft 2 m.

Type: High speed craft. MMSI: 259604000.

Date/timePositionNaut miles runAvg speedWind from/ knotsBaromVisibWave heightAir tempDewpointWater temp
2018-Apr-20 08:30N 66°57' E 013°29'10 9.8
2018-Apr-20 07:28N 66°48' E 013°16'1014.2
2018-Apr-20 06:43N 66°39' E 013°02'719.6
2018-Apr-20 06:23N 66°33' E 012°57'615.0
2018-Apr-20 05:58N 66°27' E 012°50'918.5
2018-Apr-20 05:31N 66°19' E 012°54'1220.6
2018-Apr-20 04:54N 66°07' E 012°46'2 0.2
2018-Apr-19 19:27N 66°06' E 012°42'1422.0
2018-Apr-19 18:50N 66°18' E 012°57'515.0
2018-Apr-19 18:30N 66°22' E 012°49'612.9
2018-Apr-19 18:00N 66°28' E 012°55'1116.8
2018-Apr-19 17:20N 66°39' E 013°02'613.4
2018-Apr-19 16:53N 66°43' E 013°14'1414.3
2018-Apr-19 15:52N 66°54' E 013°38'514.0
2018-Apr-19 15:30N 66°56' E 013°27'1530.8
2018-Apr-19 15:01N 67°06' E 013°57'815.0
2018-Apr-19 14:31N 67°12' E 014°09'714.2
2018-Apr-19 14:00N 67°17' E 014°22'0 0.0
2018-Apr-19 13:30N 67°17' E 014°22'0 0.0
2018-Apr-19 13:00N 67°17' E 014°22'0 0.0
2018-Apr-19 12:30N 67°17' E 014°22'0 0.0
2018-Apr-19 12:00N 67°17' E 014°22'0 0.0
2018-Apr-19 11:30N 67°17' E 014°22'0 0.0
2018-Apr-19 11:00N 67°17' E 014°22'0 0.0
2018-Apr-19 10:30N 67°17' E 014°22'0 0.7
2018-Apr-19 09:59N 67°17' E 014°23'4 7.4
2018-Apr-19 09:30N 67°15' E 014°16'1425.9
2018-Apr-19 08:58N 67°04' E 013°53'2715.4
2018-Apr-19 07:14N 66°43' E 013°14'413.1
2018-Apr-19 06:58N 66°40' E 013°08'815.3
2018-Apr-19 06:25N 66°32' E 012°58'716.4
2018-Apr-19 05:59N 66°27' E 012°48'916.6
2018-Apr-19 05:28N 66°18' E 012°54'1221.1
2018-Apr-19 04:54N 66°07' E 012°45'11 1.1
2018-Apr-18 18:42N 66°17' E 012°56'413.2
2018-Apr-18 18:24N 66°21' E 012°53'613.7
2018-Apr-18 17:56N 66°27' E 012°50'1317.1
2018-Apr-18 17:11N 66°39' E 013°03'1912.0
2018-Apr-18 15:35N 66°55' E 013°30'1 6.6
2018-Apr-18 15:21N 66°56' E 013°28'1224.8
2018-Apr-18 14:53N 67°03' E 013°52'1129.6
2018-Apr-18 14:30N 67°12' E 014°09'713.7
2018-Apr-18 13:59N 67°17' E 014°22'0 0.6
2018-Apr-18 13:30N 67°17' E 014°23'0 0.5
2018-Apr-18 12:58N 67°17' E 014°22'0 0.0
2018-Apr-18 12:28N 67°17' E 014°22'0 0.0
2018-Apr-18 11:58N 67°17' E 014°22'0 0.0
2018-Apr-18 11:28N 67°17' E 014°22'0 0.0
2018-Apr-18 10:58N 67°17' E 014°22'0 0.0
2018-Apr-18 10:28N 67°17' E 014°22'0 0.0
2018-Apr-18 09:58N 67°17' E 014°22'4 8.5
2018-Apr-18 09:30N 67°15' E 014°15'1525.9
2018-Apr-18 08:56N 67°03' E 013°51'2515.0
2018-Apr-18 07:15N 66°43' E 013°13'311.4
2018-Apr-18 06:58N 66°40' E 013°08'915.2
2018-Apr-18 06:23N 66°32' E 012°58'615.7
2018-Apr-18 06:00N 66°27' E 012°49'1019.9
2018-Apr-18 05:30N 66°18' E 012°54'917.9
2018-Apr-18 04:59N 66°08' E 012°51'7 0.8
2018-Apr-17 19:40N 66°03' E 012°38'413.3
2018-Apr-17 19:23N 66°06' E 012°43'919.5
2018-Apr-17 18:56N 66°14' E 012°55'716.6
2018-Apr-17 18:31N 66°21' E 012°54'713.9
2018-Apr-17 18:00N 66°28' E 012°54'915.9
2018-Apr-17 17:24N 66°37' E 012°59'916.8
2018-Apr-17 16:53N 66°43' E 013°17'513.7
2018-Apr-17 16:29N 66°48' E 013°18'911.7
2018-Apr-17 15:45N 66°55' E 013°30'2 9.3
2018-Apr-17 15:30N 66°57' E 013°29'1631.0
2018-Apr-17 15:00N 67°08' E 013°58'713.6
2018-Apr-17 14:30N 67°13' E 014°10'612.2
2018-Apr-17 13:59N 67°17' E 014°22'0 0.0
2018-Apr-17 13:30N 67°17' E 014°22'0 0.7
2018-Apr-17 12:58N 67°17' E 014°23'0 0.8
2018-Apr-17 12:30N 67°17' E 014°22'0 0.0
2018-Apr-17 12:00N 67°17' E 014°22'0 0.0
2018-Apr-17 11:30N 67°17' E 014°22'0 0.0
2018-Apr-17 11:00N 67°17' E 014°22'0 0.0
2018-Apr-17 10:30N 67°17' E 014°22'0 0.0
2018-Apr-17 10:00N 67°17' E 014°22'0 0.0
2018-Apr-17 09:30N 67°17' E 014°22'0 0.0
2018-Apr-17 09:00N 67°17' E 014°22'0 0.0
2018-Apr-17 08:30N 67°17' E 014°22'0 0.0
2018-Apr-17 08:00N 67°17' E 014°22'1224.7
2018-Apr-17 07:30N 67°28' E 014°36'8 0.5
2018-Apr-16 16:07N 67°35' E 014°43'328.0
2018-Apr-16 16:00N 67°32' E 014°41'1530.6
2018-Apr-16 15:30N 67°18' E 014°23'1 2.6
2018-Apr-16 14:58N 67°17' E 014°22'0 0.0
2018-Apr-16 14:29N 67°17' E 014°22'0 0.0
2018-Apr-16 13:58N 67°17' E 014°22'0 0.0
2018-Apr-16 13:28N 67°17' E 014°22'0 0.0
2018-Apr-16 12:58N 67°17' E 014°22'0 0.0
2018-Apr-16 12:28N 67°17' E 014°22'0 0.0
2018-Apr-16 11:58N 67°17' E 014°22'0 0.0
2018-Apr-16 11:28N 67°17' E 014°22'0 0.0
2018-Apr-16 10:58N 67°17' E 014°22'0 0.0
2018-Apr-16 10:28N 67°17' E 014°22'0 0.0
2018-Apr-16 09:58N 67°17' E 014°22'0 0.0
2018-Apr-16 09:28N 67°17' E 014°22'0 0.0
2018-Apr-16 08:58N 67°17' E 014°22'0 0.0
2018-Apr-16 08:28N 67°17' E 014°22'0 0.0
2018-Apr-16 08:00N 67°17' E 014°22'1019.7
2018-Apr-16 07:30N 67°26' E 014°33'9 0.7
2018-Apr-15 18:56N 67°33' E 014°43'1432.3
2018-Apr-15 18:31N 67°21' E 014°27'4 7.7
2018-Apr-15 18:00N 67°17' E 014°23'0 0.8
2018-Apr-15 17:31N 67°17' E 014°22'1224.8
2018-Apr-15 17:00N 67°28' E 014°36'12 0.3
2018-Apr-13 17:07N 67°40' E 014°45'620.6
2018-Apr-13 16:49N 67°34' E 014°43'1031.1
2018-Apr-13 16:31N 67°25' E 014°32'11 3.8
2018-Apr-13 13:40N 67°35' E 014°43'529.5
2018-Apr-13 13:31N 67°31' E 014°39'1530.2
2018-Apr-13 13:00N 67°17' E 014°22'0 0.7
2018-Apr-13 12:30N 67°17' E 014°23'0 0.6
2018-Apr-13 12:00N 67°17' E 014°22'0 0.0
2018-Apr-13 11:30N 67°17' E 014°22'0 0.0
2018-Apr-13 11:00N 67°17' E 014°22'0 0.0
2018-Apr-13 10:30N 67°17' E 014°22'0 0.0
2018-Apr-13 10:00N 67°17' E 014°22'0 0.0
2018-Apr-13 09:30N 67°17' E 014°22'0 0.0
2018-Apr-13 09:00N 67°17' E 014°22'0 0.0
2018-Apr-13 08:30N 67°17' E 014°22'0 0.0
2018-Apr-13 08:00N 67°17' E 014°22'715.1
2018-Apr-13 07:31N 67°24' E 014°31'8 0.5
2018-Apr-12 16:00N 67°31' E 014°39'1530.2
2018-Apr-12 15:30N 67°17' E 014°22'0 0.6
2018-Apr-12 14:59N 67°17' E 014°22'0 0.0
2018-Apr-12 14:29N 67°17' E 014°22'0 0.0
2018-Apr-12 13:59N 67°17' E 014°22'0 0.0
2018-Apr-12 13:29N 67°17' E 014°22'0 0.0
2018-Apr-12 12:59N 67°17' E 014°22'0 0.0
2018-Apr-12 12:29N 67°17' E 014°22'0 0.0
2018-Apr-12 11:59N 67°17' E 014°22'0 0.0
2018-Apr-12 11:29N 67°17' E 014°22'0 0.0
2018-Apr-12 10:59N 67°17' E 014°22'0 0.0
2018-Apr-12 10:29N 67°17' E 014°22'0 0.0
2018-Apr-12 09:59N 67°17' E 014°22'0 0.0
2018-Apr-12 09:29N 67°17' E 014°22'0 0.0
2018-Apr-12 08:59N 67°17' E 014°22'0 0.0
2018-Apr-12 08:29N 67°17' E 014°22'0 0.0
2018-Apr-12 07:59N 67°17' E 014°22'0 0.0
2018-Apr-12 07:29N 67°17' E 014°22'0 0.0
2018-Apr-12 06:59N 67°17' E 014°22'0 0.0
2018-Apr-12 06:29N 67°17' E 014°22'0 0.0
2018-Apr-12 05:59N 67°17' E 014°22'0 0.8
2018-Apr-12 05:30N 67°17' E 014°23'1 1.8
2018-Apr-12 05:01N 67°17' E 014°21'1223.6
2018-Apr-12 04:30N 67°07' E 014°03'5 9.1
2018-Apr-12 04:01N 67°12' E 014°07'816.0
2018-Apr-12 03:30N 67°17' E 014°22'0 0.0
2018-Apr-12 02:59N 67°17' E 014°22'0 0.0
2018-Apr-12 02:29N 67°17' E 014°22'0 0.0
2018-Apr-12 01:59N 67°17' E 014°22'0 0.0
2018-Apr-12 01:29N 67°17' E 014°22'0 0.0
2018-Apr-12 00:59N 67°17' E 014°22'0 0.0
2018-Apr-12 00:29N 67°17' E 014°22'0 0.0
2018-Apr-11 23:59N 67°17' E 014°22'0 0.0
2018-Apr-11 23:29N 67°17' E 014°22'0 0.0
2018-Apr-11 22:59N 67°17' E 014°22'0 0.0
2018-Apr-11 22:29N 67°17' E 014°22'0 0.0
2018-Apr-11 21:59N 67°17' E 014°22'0 0.0
2018-Apr-11 21:29N 67°17' E 014°22'0 0.0
2018-Apr-11 20:59N 67°17' E 014°22'0 0.0
2018-Apr-11 20:29N 67°17' E 014°22'0 0.0
2018-Apr-11 19:59N 67°17' E 014°22'714.7
2018-Apr-11 19:31N 67°14' E 014°07'917.7
2018-Apr-11 19:01N 67°08' E 013°48'510.4
2018-Apr-11 18:31N 67°08' E 014°02'1224.0
2018-Apr-11 18:00N 67°17' E 014°22'0 0.1
2018-Apr-11 17:30N 67°17' E 014°22'0 0.0
2018-Apr-11 16:59N 67°17' E 014°22'0 0.2
2018-Apr-11 16:31N 67°17' E 014°22'2 4.3
2018-Apr-11 16:01N 67°17' E 014°17'1325.3
2018-Apr-11 15:30N 67°18' E 013°43'710.7
2018-Apr-11 14:48N 67°24' E 013°54'724.2
2018-Apr-11 14:30N 67°24' E 014°13'815.4
2018-Apr-11 14:00N 67°17' E 014°22'0 0.6
2018-Apr-11 13:30N 67°17' E 014°23'0 0.5
2018-Apr-11 12:58N 67°17' E 014°22'0 0.0
2018-Apr-11 12:31N 67°17' E 014°22'0 0.0
2018-Apr-11 12:01N 67°17' E 014°22'0 0.0
2018-Apr-11 11:30N 67°17' E 014°22'0 0.0
2018-Apr-11 11:00N 67°17' E 014°22'0 0.0
2018-Apr-11 10:30N 67°17' E 014°22'0 0.0
2018-Apr-11 10:00N 67°17' E 014°22'0 0.0
2018-Apr-11 09:30N 67°17' E 014°22'0 0.0
2018-Apr-11 09:00N 67°17' E 014°22'0 0.0
2018-Apr-11 08:30N 67°17' E 014°22'0 0.8
2018-Apr-11 08:01N 67°17' E 014°23'510.7
2018-Apr-11 07:31N 67°21' E 014°14'714.4
2018-Apr-11 07:00N 67°26' E 013°59'914.8
2018-Apr-11 06:23N 67°18' E 013°43'719.3
2018-Apr-11 06:00N 67°24' E 013°54'714.7
2018-Apr-11 05:30N 67°23' E 014°13'713.7
2018-Apr-11 05:01N 67°17' E 014°22'1224.4
2018-Apr-11 04:30N 67°07' E 014°03'3 6.6
2018-Apr-11 04:01N 67°11' E 014°05'918.8
2018-Apr-11 03:30N 67°17' E 014°22'0 0.0
2018-Apr-11 03:00N 67°17' E 014°22'0 0.0
2018-Apr-11 02:30N 67°17' E 014°22'0 0.0
2018-Apr-11 02:00N 67°17' E 014°22'0 0.0
2018-Apr-11 01:30N 67°17' E 014°22'0 0.0
2018-Apr-11 01:00N 67°17' E 014°22'0 0.0
2018-Apr-11 00:30N 67°17' E 014°22'0 0.0
2018-Apr-11 00:00N 67°17' E 014°22'0 0.0
2018-Apr-10 23:30N 67°17' E 014°22'0 0.0
2018-Apr-10 23:00N 67°17' E 014°22'0 0.0
2018-Apr-10 22:30N 67°17' E 014°22'0 0.0
2018-Apr-10 22:00N 67°17' E 014°22'0 0.0
2018-Apr-10 21:30N 67°17' E 014°22'0 0.0
2018-Apr-10 21:00N 67°17' E 014°22'0 0.0
2018-Apr-10 20:30N 67°17' E 014°22'0 0.0
2018-Apr-10 20:00N 67°17' E 014°22'0 0.0
2018-Apr-10 19:30N 67°17' E 014°22'0 0.0
2018-Apr-10 19:00N 67°17' E 014°22'0 0.0
2018-Apr-10 18:30N 67°17' E 014°22'0 0.0
2018-Apr-10 18:00N 67°17' E 014°22'0 0.0
2018-Apr-10 17:30N 67°17' E 014°22'0 0.0
2018-Apr-10 17:00N 67°17' E 014°22'1 1.3
2018-Apr-10 16:30N 67°17' E 014°24'611.7
2018-Apr-10 16:01N 67°17' E 014°09'917.9
2018-Apr-10 15:30N 67°20' E 013°46'610.7
2018-Apr-10 14:59N 67°24' E 013°54'816.6
2018-Apr-10 14:31N 67°23' E 014°15'714.2
2018-Apr-10 14:00N 67°17' E 014°22'1 1.1
2018-Apr-10 13:30N 67°17' E 014°23'1 1.1
2018-Apr-10 13:00N 67°17' E 014°22'0 0.0
2018-Apr-10 12:29N 67°17' E 014°22'0 0.0
2018-Apr-10 11:59N 67°17' E 014°22'0 0.0
2018-Apr-10 11:29N 67°17' E 014°22'0 0.0
2018-Apr-10 10:59N 67°17' E 014°22'0 0.0
2018-Apr-10 10:29N 67°17' E 014°22'0 0.0
2018-Apr-10 09:59N 67°17' E 014°22'0 0.0
2018-Apr-10 09:29N 67°17' E 014°22'0 0.0
2018-Apr-10 08:59N 67°17' E 014°22'  
Track history (hours):
 
Tides and Currents Weather Stations Pressure Air Temp Water Temp Dewpoint Dewpoint Depression Visibility Wind Speed Wind Dir Waves Ship Positions

Fjordprinsessen

Last reported at 2018-Apr-20 08:30 UTC. Time now 2018-Apr-20 08:41 UTC.
Position N 66°57' E 013°29'.

Length 30 m; draft 2 m.

Type: High speed craft. MMSI: 259604000.

Date/timePositionNaut miles runAvg speedWind from/ knotsBaromVisibWave heightAir tempDewpointWater temp
2018-Apr-20 08:30N 66°57' E 013°29'10 9.8
2018-Apr-20 07:28N 66°48' E 013°16'1014.2
2018-Apr-20 06:43N 66°39' E 013°02'719.6
2018-Apr-20 06:23N 66°33' E 012°57'615.0
2018-Apr-20 05:58N 66°27' E 012°50'918.5
2018-Apr-20 05:31N 66°19' E 012°54'1220.6
2018-Apr-20 04:54N 66°07' E 012°46'2 0.2
2018-Apr-19 19:27N 66°06' E 012°42'1422.0
2018-Apr-19 18:50N 66°18' E 012°57'515.0
2018-Apr-19 18:30N 66°22' E 012°49'612.9
2018-Apr-19 18:00N 66°28' E 012°55'1116.8
2018-Apr-19 17:20N 66°39' E 013°02'613.4
2018-Apr-19 16:53N 66°43' E 013°14'1414.3
2018-Apr-19 15:52N 66°54' E 013°38'514.0
2018-Apr-19 15:30N 66°56' E 013°27'1530.8
2018-Apr-19 15:01N 67°06' E 013°57'815.0
2018-Apr-19 14:31N 67°12' E 014°09'714.2
2018-Apr-19 14:00N 67°17' E 014°22'0 0.0
2018-Apr-19 13:30N 67°17' E 014°22'0 0.0
2018-Apr-19 13:00N 67°17' E 014°22'0 0.0
2018-Apr-19 12:30N 67°17' E 014°22'0 0.0
2018-Apr-19 12:00N 67°17' E 014°22'0 0.0
2018-Apr-19 11:30N 67°17' E 014°22'0 0.0
2018-Apr-19 11:00N 67°17' E 014°22'0 0.0
2018-Apr-19 10:30N 67°17' E 014°22'0 0.7
2018-Apr-19 09:59N 67°17' E 014°23'4 7.4
2018-Apr-19 09:30N 67°15' E 014°16'1425.9
2018-Apr-19 08:58N 67°04' E 013°53'2715.4
2018-Apr-19 07:14N 66°43' E 013°14'413.1
2018-Apr-19 06:58N 66°40' E 013°08'815.3
2018-Apr-19 06:25N 66°32' E 012°58'716.4
2018-Apr-19 05:59N 66°27' E 012°48'916.6
2018-Apr-19 05:28N 66°18' E 012°54'1221.1
2018-Apr-19 04:54N 66°07' E 012°45'11 1.1
2018-Apr-18 18:42N 66°17' E 012°56'413.2
2018-Apr-18 18:24N 66°21' E 012°53'613.7
2018-Apr-18 17:56N 66°27' E 012°50'1317.1
2018-Apr-18 17:11N 66°39' E 013°03'1912.0
2018-Apr-18 15:35N 66°55' E 013°30'1 6.6
2018-Apr-18 15:21N 66°56' E 013°28'1224.8
2018-Apr-18 14:53N 67°03' E 013°52'1129.6
2018-Apr-18 14:30N 67°12' E 014°09'713.7
2018-Apr-18 13:59N 67°17' E 014°22'0 0.6
2018-Apr-18 13:30N 67°17' E 014°23'0 0.5
2018-Apr-18 12:58N 67°17' E 014°22'0 0.0
2018-Apr-18 12:28N 67°17' E 014°22'0 0.0
2018-Apr-18 11:58N 67°17' E 014°22'0 0.0
2018-Apr-18 11:28N 67°17' E 014°22'0 0.0
2018-Apr-18 10:58N 67°17' E 014°22'0 0.0
2018-Apr-18 10:28N 67°17' E 014°22'0 0.0
2018-Apr-18 09:58N 67°17' E 014°22'4 8.5
2018-Apr-18 09:30N 67°15' E 014°15'1525.9
2018-Apr-18 08:56N 67°03' E 013°51'2515.0
2018-Apr-18 07:15N 66°43' E 013°13'311.4
2018-Apr-18 06:58N 66°40' E 013°08'915.2
2018-Apr-18 06:23N 66°32' E 012°58'615.7
2018-Apr-18 06:00N 66°27' E 012°49'1019.9
2018-Apr-18 05:30N 66°18' E 012°54'917.9
2018-Apr-18 04:59N 66°08' E 012°51'7 0.8
2018-Apr-17 19:40N 66°03' E 012°38'413.3
2018-Apr-17 19:23N 66°06' E 012°43'919.5
2018-Apr-17 18:56N 66°14' E 012°55'716.6
2018-Apr-17 18:31N 66°21' E 012°54'713.9
2018-Apr-17 18:00N 66°28' E 012°54'915.9
2018-Apr-17 17:24N 66°37' E 012°59'916.8
2018-Apr-17 16:53N 66°43' E 013°17'513.7
2018-Apr-17 16:29N 66°48' E 013°18'911.7
2018-Apr-17 15:45N 66°55' E 013°30'2 9.3
2018-Apr-17 15:30N 66°57' E 013°29'1631.0
2018-Apr-17 15:00N 67°08' E 013°58'713.6
2018-Apr-17 14:30N 67°13' E 014°10'612.2
2018-Apr-17 13:59N 67°17' E 014°22'0 0.0
2018-Apr-17 13:30N 67°17' E 014°22'0 0.7
2018-Apr-17 12:58N 67°17' E 014°23'0 0.8
2018-Apr-17 12:30N 67°17' E 014°22'0 0.0
2018-Apr-17 12:00N 67°17' E 014°22'0 0.0
2018-Apr-17 11:30N 67°17' E 014°22'0 0.0
2018-Apr-17 11:00N 67°17' E 014°22'0 0.0
2018-Apr-17 10:30N 67°17' E 014°22'0 0.0
2018-Apr-17 10:00N 67°17' E 014°22'0 0.0
2018-Apr-17 09:30N 67°17' E 014°22'0 0.0
2018-Apr-17 09:00N 67°17' E 014°22'0 0.0
2018-Apr-17 08:30N 67°17' E 014°22'0 0.0
2018-Apr-17 08:00N 67°17' E 014°22'1224.7
2018-Apr-17 07:30N 67°28' E 014°36'8 0.5
2018-Apr-16 16:07N 67°35' E 014°43'328.0
2018-Apr-16 16:00N 67°32' E 014°41'1530.6
2018-Apr-16 15:30N 67°18' E 014°23'1 2.6
2018-Apr-16 14:58N 67°17' E 014°22'0 0.0
2018-Apr-16 14:29N 67°17' E 014°22'0 0.0
2018-Apr-16 13:58N 67°17' E 014°22'0 0.0
2018-Apr-16 13:28N 67°17' E 014°22'0 0.0
2018-Apr-16 12:58N 67°17' E 014°22'0 0.0
2018-Apr-16 12:28N 67°17' E 014°22'0 0.0
2018-Apr-16 11:58N 67°17' E 014°22'0 0.0
2018-Apr-16 11:28N 67°17' E 014°22'0 0.0
2018-Apr-16 10:58N 67°17' E 014°22'0 0.0
2018-Apr-16 10:28N 67°17' E 014°22'0 0.0
2018-Apr-16 09:58N 67°17' E 014°22'0 0.0
2018-Apr-16 09:28N 67°17' E 014°22'0 0.0
2018-Apr-16 08:58N 67°17' E 014°22'0 0.0
2018-Apr-16 08:28N 67°17' E 014°22'0 0.0
2018-Apr-16 08:00N 67°17' E 014°22'1019.7
2018-Apr-16 07:30N 67°26' E 014°33'9 0.7
2018-Apr-15 18:56N 67°33' E 014°43'1432.3
2018-Apr-15 18:31N 67°21' E 014°27'4 7.7
2018-Apr-15 18:00N 67°17' E 014°23'0 0.8
2018-Apr-15 17:31N 67°17' E 014°22'1224.8
2018-Apr-15 17:00N 67°28' E 014°36'12 0.3
2018-Apr-13 17:07N 67°40' E 014°45'620.6
2018-Apr-13 16:49N 67°34' E 014°43'1031.1
2018-Apr-13 16:31N 67°25' E 014°32'11 3.8
2018-Apr-13 13:40N 67°35' E 014°43'529.5
2018-Apr-13 13:31N 67°31' E 014°39'1530.2
2018-Apr-13 13:00N 67°17' E 014°22'0 0.7
2018-Apr-13 12:30N 67°17' E 014°23'0 0.6
2018-Apr-13 12:00N 67°17' E 014°22'0 0.0
2018-Apr-13 11:30N 67°17' E 014°22'0 0.0
2018-Apr-13 11:00N 67°17' E 014°22'0 0.0
2018-Apr-13 10:30N 67°17' E 014°22'0 0.0
2018-Apr-13 10:00N 67°17' E 014°22'0 0.0
2018-Apr-13 09:30N 67°17' E 014°22'0 0.0
2018-Apr-13 09:00N 67°17' E 014°22'0 0.0
2018-Apr-13 08:30N 67°17' E 014°22'0 0.0
2018-Apr-13 08:00N 67°17' E 014°22'715.1
2018-Apr-13 07:31N 67°24' E 014°31'8 0.5
2018-Apr-12 16:00N 67°31' E 014°39'1530.2
2018-Apr-12 15:30N 67°17' E 014°22'0 0.6
2018-Apr-12 14:59N 67°17' E 014°22'0 0.0
2018-Apr-12 14:29N 67°17' E 014°22'0 0.0
2018-Apr-12 13:59N 67°17' E 014°22'0 0.0
2018-Apr-12 13:29N 67°17' E 014°22'0 0.0
2018-Apr-12 12:59N 67°17' E 014°22'0 0.0
2018-Apr-12 12:29N 67°17' E 014°22'0 0.0
2018-Apr-12 11:59N 67°17' E 014°22'0 0.0
2018-Apr-12 11:29N 67°17' E 014°22'0 0.0
2018-Apr-12 10:59N 67°17' E 014°22'0 0.0
2018-Apr-12 10:29N 67°17' E 014°22'0 0.0
2018-Apr-12 09:59N 67°17' E 014°22'0 0.0
2018-Apr-12 09:29N 67°17' E 014°22'0 0.0
2018-Apr-12 08:59N 67°17' E 014°22'0 0.0
2018-Apr-12 08:29N 67°17' E 014°22'0 0.0
2018-Apr-12 07:59N 67°17' E 014°22'0 0.0
2018-Apr-12 07:29N 67°17' E 014°22'0 0.0
2018-Apr-12 06:59N 67°17' E 014°22'0 0.0
2018-Apr-12 06:29N 67°17' E 014°22'0 0.0
2018-Apr-12 05:59N 67°17' E 014°22'0 0.8
2018-Apr-12 05:30N 67°17' E 014°23'1 1.8
2018-Apr-12 05:01N 67°17' E 014°21'1223.6
2018-Apr-12 04:30N 67°07' E 014°03'5 9.1
2018-Apr-12 04:01N 67°12' E 014°07'816.0
2018-Apr-12 03:30N 67°17' E 014°22'0 0.0
2018-Apr-12 02:59N 67°17' E 014°22'0 0.0
2018-Apr-12 02:29N 67°17' E 014°22'0 0.0
2018-Apr-12 01:59N 67°17' E 014°22'0 0.0
2018-Apr-12 01:29N 67°17' E 014°22'0 0.0
2018-Apr-12 00:59N 67°17' E 014°22'0 0.0
2018-Apr-12 00:29N 67°17' E 014°22'0 0.0
2018-Apr-11 23:59N 67°17' E 014°22'0 0.0
2018-Apr-11 23:29N 67°17' E 014°22'0 0.0
2018-Apr-11 22:59N 67°17' E 014°22'0 0.0
2018-Apr-11 22:29N 67°17' E 014°22'0 0.0
2018-Apr-11 21:59N 67°17' E 014°22'0 0.0
2018-Apr-11 21:29N 67°17' E 014°22'0 0.0
2018-Apr-11 20:59N 67°17' E 014°22'0 0.0
2018-Apr-11 20:29N 67°17' E 014°22'0 0.0
2018-Apr-11 19:59N 67°17' E 014°22'714.7
2018-Apr-11 19:31N 67°14' E 014°07'917.7
2018-Apr-11 19:01N 67°08' E 013°48'510.4
2018-Apr-11 18:31N 67°08' E 014°02'1224.0
2018-Apr-11 18:00N 67°17' E 014°22'0 0.1
2018-Apr-11 17:30N 67°17' E 014°22'0 0.0
2018-Apr-11 16:59N 67°17' E 014°22'0 0.2
2018-Apr-11 16:31N 67°17' E 014°22'2 4.3
2018-Apr-11 16:01N 67°17' E 014°17'1325.3
2018-Apr-11 15:30N 67°18' E 013°43'710.7
2018-Apr-11 14:48N 67°24' E 013°54'724.2
2018-Apr-11 14:30N 67°24' E 014°13'815.4
2018-Apr-11 14:00N 67°17' E 014°22'0 0.6
2018-Apr-11 13:30N 67°17' E 014°23'0 0.5
2018-Apr-11 12:58N 67°17' E 014°22'0 0.0
2018-Apr-11 12:31N 67°17' E 014°22'0 0.0
2018-Apr-11 12:01N 67°17' E 014°22'0 0.0
2018-Apr-11 11:30N 67°17' E 014°22'0 0.0
2018-Apr-11 11:00N 67°17' E 014°22'0 0.0
2018-Apr-11 10:30N 67°17' E 014°22'0 0.0
2018-Apr-11 10:00N 67°17' E 014°22'0 0.0
2018-Apr-11 09:30N 67°17' E 014°22'0 0.0
2018-Apr-11 09:00N 67°17' E 014°22'0 0.0
2018-Apr-11 08:30N 67°17' E 014°22'0 0.8
2018-Apr-11 08:01N 67°17' E 014°23'510.7
2018-Apr-11 07:31N 67°21' E 014°14'714.4
2018-Apr-11 07:00N 67°26' E 013°59'914.8
2018-Apr-11 06:23N 67°18' E 013°43'719.3
2018-Apr-11 06:00N 67°24' E 013°54'714.7
2018-Apr-11 05:30N 67°23' E 014°13'713.7
2018-Apr-11 05:01N 67°17' E 014°22'1224.4
2018-Apr-11 04:30N 67°07' E 014°03'3 6.6
2018-Apr-11 04:01N 67°11' E 014°05'918.8
2018-Apr-11 03:30N 67°17' E 014°22'0 0.0
2018-Apr-11 03:00N 67°17' E 014°22'0 0.0
2018-Apr-11 02:30N 67°17' E 014°22'0 0.0
2018-Apr-11 02:00N 67°17' E 014°22'0 0.0
2018-Apr-11 01:30N 67°17' E 014°22'0 0.0
2018-Apr-11 01:00N 67°17' E 014°22'0 0.0
2018-Apr-11 00:30N 67°17' E 014°22'0 0.0
2018-Apr-11 00:00N 67°17' E 014°22'0 0.0
2018-Apr-10 23:30N 67°17' E 014°22'0 0.0
2018-Apr-10 23:00N 67°17' E 014°22'0 0.0
2018-Apr-10 22:30N 67°17' E 014°22'0 0.0
2018-Apr-10 22:00N 67°17' E 014°22'0 0.0
2018-Apr-10 21:30N 67°17' E 014°22'0 0.0
2018-Apr-10 21:00N 67°17' E 014°22'0 0.0
2018-Apr-10 20:30N 67°17' E 014°22'0 0.0
2018-Apr-10 20:00N 67°17' E 014°22'0 0.0
2018-Apr-10 19:30N 67°17' E 014°22'0 0.0
2018-Apr-10 19:00N 67°17' E 014°22'0 0.0
2018-Apr-10 18:30N 67°17' E 014°22'0 0.0
2018-Apr-10 18:00N 67°17' E 014°22'0 0.0
2018-Apr-10 17:30N 67°17' E 014°22'0 0.0
2018-Apr-10 17:00N 67°17' E 014°22'1 1.3
2018-Apr-10 16:30N 67°17' E 014°24'611.7
2018-Apr-10 16:01N 67°17' E 014°09'917.9
2018-Apr-10 15:30N 67°20' E 013°46'610.7
2018-Apr-10 14:59N 67°24' E 013°54'816.6
2018-Apr-10 14:31N 67°23' E 014°15'714.2
2018-Apr-10 14:00N 67°17' E 014°22'1 1.1
2018-Apr-10 13:30N 67°17' E 014°23'1 1.1
2018-Apr-10 13:00N 67°17' E 014°22'0 0.0
2018-Apr-10 12:29N 67°17' E 014°22'0 0.0
2018-Apr-10 11:59N 67°17' E 014°22'0 0.0
2018-Apr-10 11:29N 67°17' E 014°22'0 0.0
2018-Apr-10 10:59N 67°17' E 014°22'0 0.0
2018-Apr-10 10:29N 67°17' E 014°22'0 0.0
2018-Apr-10 09:59N 67°17' E 014°22'0 0.0
2018-Apr-10 09:29N 67°17' E 014°22'0 0.0
2018-Apr-10 08:59N 67°17' E 014°22'  

Dump ship's entire track history